createdAt,value
2022-11-16T00:00:44.686Z,6.46
2022-11-16T00:01:44.690Z,6.44
2022-11-16T00:02:44.640Z,6.40
2022-11-16T00:03:44.636Z,6.38
2022-11-16T00:04:44.622Z,6.37
2022-11-16T00:05:44.642Z,6.34
2022-11-16T00:06:44.603Z,6.34
2022-11-16T00:07:44.595Z,6.33
2022-11-16T00:08:44.583Z,6.31
2022-11-16T00:09:44.597Z,6.31
2022-11-16T00:10:44.560Z,6.30
2022-11-16T00:11:44.549Z,6.30
2022-11-16T00:12:44.533Z,6.28
2022-11-16T00:13:44.531Z,6.30
2022-11-16T00:14:44.545Z,6.30
2022-11-16T00:15:44.516Z,6.28
2022-11-16T00:16:44.497Z,6.28
2022-11-16T00:17:44.484Z,6.28
2022-11-16T00:18:44.476Z,6.28
2022-11-16T00:19:44.502Z,6.31
2022-11-16T00:20:44.456Z,6.30
2022-11-16T00:21:44.455Z,6.30
2022-11-16T00:22:44.441Z,6.31
2022-11-16T00:23:44.422Z,6.31
2022-11-16T00:24:44.421Z,6.33
2022-11-16T00:25:44.427Z,6.34
2022-11-16T00:26:44.398Z,6.34
2022-11-16T00:27:44.379Z,6.34
2022-11-16T00:28:44.393Z,6.34
2022-11-16T00:29:44.358Z,6.34
2022-11-16T00:30:44.349Z,6.34
2022-11-16T00:31:44.359Z,6.36
2022-11-16T00:32:44.335Z,6.38
2022-11-16T00:33:44.341Z,6.38
2022-11-16T00:34:44.308Z,6.41
2022-11-16T00:35:44.296Z,6.43
2022-11-16T00:36:44.406Z,6.41
2022-11-16T00:37:44.312Z,6.41
2022-11-16T00:38:44.293Z,6.43
2022-11-16T00:39:44.259Z,6.44
2022-11-16T00:40:44.249Z,6.46
2022-11-16T00:41:44.248Z,6.46
2022-11-16T00:42:44.250Z,6.48
2022-11-16T00:43:44.223Z,6.48
2022-11-16T00:44:44.205Z,6.49
2022-11-16T00:45:44.194Z,6.52
2022-11-16T00:46:44.212Z,6.55
2022-11-16T00:47:44.206Z,6.56
2022-11-16T00:48:44.168Z,6.58
2022-11-16T00:49:44.150Z,6.59
2022-11-16T00:50:44.147Z,6.61
2022-11-16T00:51:44.136Z,6.61
2022-11-16T00:52:44.126Z,6.62
2022-11-16T00:53:44.143Z,6.64
2022-11-16T00:54:44.145Z,6.66
2022-11-16T00:55:44.100Z,6.66
2022-11-16T00:56:44.077Z,6.66
2022-11-16T00:57:50.548Z,6.66
2022-11-16T00:58:44.078Z,6.69
2022-11-16T00:59:44.045Z,6.69
2022-11-16T01:00:44.061Z,6.70
2022-11-16T01:01:44.068Z,6.71
2022-11-16T01:02:44.031Z,6.70
2022-11-16T01:03:44.040Z,6.73
2022-11-16T01:04:44.024Z,6.73
2022-11-16T01:05:44.015Z,6.74
2022-11-16T01:06:43.998Z,6.76
2022-11-16T01:07:43.979Z,6.74
2022-11-16T01:08:44.000Z,6.76
2022-11-16T01:09:43.959Z,6.76
2022-11-16T01:10:43.937Z,6.77
2022-11-16T01:11:43.929Z,6.77
2022-11-16T01:12:43.914Z,6.79
2022-11-16T01:13:43.895Z,6.79
2022-11-16T01:14:43.890Z,6.80
2022-11-16T01:15:43.903Z,6.79
2022-11-16T01:16:43.875Z,6.80
2022-11-16T01:17:43.866Z,6.80
2022-11-16T01:18:43.851Z,6.80
2022-11-16T01:19:43.833Z,6.80
2022-11-16T01:20:43.849Z,6.79
2022-11-16T01:21:43.828Z,6.80
2022-11-16T01:22:43.813Z,6.81
2022-11-16T01:23:43.820Z,6.81
2022-11-16T01:24:43.793Z,6.81
2022-11-16T01:25:43.770Z,6.80
2022-11-16T01:26:43.765Z,6.81
2022-11-16T01:27:43.783Z,6.79
2022-11-16T01:28:43.747Z,6.80
2022-11-16T01:29:43.753Z,6.79
2022-11-16T01:30:43.753Z,6.79
2022-11-16T01:31:43.722Z,6.80
2022-11-16T01:32:43.705Z,6.79
2022-11-16T01:33:43.697Z,6.79
2022-11-16T01:34:43.685Z,6.79
2022-11-16T01:35:43.667Z,6.79
2022-11-16T01:36:43.710Z,6.80
2022-11-16T01:37:43.653Z,6.80
2022-11-16T01:38:43.676Z,6.79
2022-11-16T01:39:43.627Z,6.80
2022-11-16T01:40:43.621Z,6.80
2022-11-16T01:41:43.630Z,6.79
2022-11-16T01:42:43.638Z,6.81
2022-11-16T01:43:43.581Z,6.79
2022-11-16T01:44:43.574Z,6.81
2022-11-16T01:45:43.587Z,6.79
2022-11-16T01:46:43.550Z,6.80
2022-11-16T01:47:43.553Z,6.77
2022-11-16T01:48:43.617Z,6.76
2022-11-16T01:49:43.548Z,6.76
2022-11-16T01:50:43.510Z,6.76
2022-11-16T01:51:43.515Z,6.76
2022-11-16T01:52:43.497Z,6.77
2022-11-16T01:53:43.516Z,6.77
2022-11-16T01:54:43.536Z,6.79
2022-11-16T01:55:43.483Z,6.79
2022-11-16T01:56:43.445Z,6.77
2022-11-16T01:57:43.442Z,6.77
2022-11-16T01:58:43.436Z,6.79
2022-11-16T01:59:43.410Z,6.79
2022-11-16T02:00:43.493Z,6.80
2022-11-16T02:01:43.431Z,6.79
2022-11-16T02:02:43.390Z,6.79
2022-11-16T02:03:43.370Z,6.79
2022-11-16T02:04:43.387Z,6.80
2022-11-16T02:05:43.361Z,6.79
2022-11-16T02:06:43.378Z,6.79
2022-11-16T02:07:43.355Z,6.77
2022-11-16T02:08:43.328Z,6.76
2022-11-16T02:09:43.311Z,6.77
2022-11-16T02:10:43.301Z,6.74
2022-11-16T02:11:43.284Z,6.76
2022-11-16T02:12:43.310Z,6.76
2022-11-16T02:13:43.297Z,6.74
2022-11-16T02:14:43.256Z,6.77
2022-11-16T02:15:43.248Z,6.77
2022-11-16T02:16:43.232Z,6.77
2022-11-16T02:17:43.249Z,6.77
2022-11-16T02:18:43.247Z,6.77
2022-11-16T02:19:43.210Z,6.77
2022-11-16T02:20:43.195Z,6.76
2022-11-16T02:21:43.196Z,6.76
2022-11-16T02:22:43.173Z,6.74
2022-11-16T02:23:43.177Z,6.73
2022-11-16T02:24:43.179Z,6.73
2022-11-16T02:25:43.141Z,6.73
2022-11-16T02:26:43.157Z,6.73
2022-11-16T02:27:43.150Z,6.74
2022-11-16T02:28:43.108Z,6.74
2022-11-16T02:29:43.139Z,6.74
2022-11-16T02:30:43.120Z,6.73
2022-11-16T02:31:43.072Z,6.71
2022-11-16T02:32:43.070Z,6.71
2022-11-16T02:33:43.053Z,6.70
2022-11-16T02:34:43.090Z,6.69
2022-11-16T02:35:43.046Z,6.69
2022-11-16T02:36:43.070Z,6.67
2022-11-16T02:37:43.048Z,6.66
2022-11-16T02:38:43.003Z,6.64
2022-11-16T02:39:43.006Z,6.62
2022-11-16T02:40:42.981Z,6.62
2022-11-16T02:41:42.978Z,6.61
2022-11-16T02:42:43.023Z,6.59
2022-11-16T02:43:42.965Z,6.61
2022-11-16T02:44:42.947Z,6.59
2022-11-16T02:45:42.928Z,6.61
2022-11-16T02:46:42.922Z,6.59
2022-11-16T02:47:42.929Z,6.58
2022-11-16T02:48:42.923Z,6.58
2022-11-16T02:49:42.884Z,6.58
2022-11-16T02:50:42.876Z,6.58
2022-11-16T02:51:42.913Z,6.56
2022-11-16T02:52:42.859Z,6.54
2022-11-16T02:53:42.864Z,6.52
2022-11-16T02:54:42.855Z,6.49
2022-11-16T02:55:42.826Z,6.48
2022-11-16T02:56:42.842Z,6.46
2022-11-16T02:57:42.821Z,6.48
2022-11-16T02:58:42.811Z,6.48
2022-11-16T02:59:42.805Z,6.51
2022-11-16T03:00:42.808Z,6.48
2022-11-16T03:01:42.762Z,6.46
2022-11-16T03:02:42.770Z,6.46
2022-11-16T03:03:42.741Z,6.44
2022-11-16T03:04:42.755Z,6.43
2022-11-16T03:05:42.751Z,6.40
2022-11-16T03:06:42.718Z,6.38
2022-11-16T03:07:42.703Z,6.37
2022-11-16T03:08:42.687Z,6.37
2022-11-16T03:09:42.671Z,6.34
2022-11-16T03:10:42.691Z,6.36
2022-11-16T03:11:42.685Z,6.37
2022-11-16T03:12:42.648Z,6.37
2022-11-16T03:13:42.654Z,6.38
2022-11-16T03:14:42.628Z,6.38
2022-11-16T03:15:42.615Z,6.37
2022-11-16T03:16:42.601Z,6.37
2022-11-16T03:17:42.623Z,6.34
2022-11-16T03:18:42.591Z,6.34
2022-11-16T03:19:42.574Z,6.34
2022-11-16T03:20:42.566Z,6.34
2022-11-16T03:21:42.558Z,6.31
2022-11-16T03:22:42.566Z,6.31
2022-11-16T03:23:42.541Z,6.31
2022-11-16T03:24:42.529Z,6.30
2022-11-16T03:25:42.516Z,6.27
2022-11-16T03:26:42.504Z,6.27
2022-11-16T03:27:42.518Z,6.27
2022-11-16T03:28:42.475Z,6.27
2022-11-16T03:29:42.463Z,6.27
2022-11-16T03:30:42.459Z,6.25
2022-11-16T03:31:42.445Z,6.21
2022-11-16T03:32:42.443Z,6.19
2022-11-16T03:33:42.450Z,6.18
2022-11-16T03:34:42.414Z,6.14
2022-11-16T03:35:42.402Z,6.14
2022-11-16T03:36:42.404Z,6.14
2022-11-16T03:37:42.381Z,6.12
2022-11-16T03:38:42.409Z,6.12
2022-11-16T03:39:42.363Z,6.09
2022-11-16T03:40:42.350Z,6.09
2022-11-16T03:41:42.365Z,6.09
2022-11-16T03:42:42.344Z,6.09
2022-11-16T03:43:42.341Z,6.06
2022-11-16T03:44:42.353Z,6.04
2022-11-16T03:45:42.324Z,6.03
2022-11-16T03:46:42.292Z,6.03
2022-11-16T03:47:42.273Z,6.00
2022-11-16T03:48:42.310Z,6.00
2022-11-16T03:49:42.284Z,6.01
2022-11-16T03:50:42.252Z,5.99
2022-11-16T03:51:42.269Z,5.99
2022-11-16T03:52:42.237Z,6.01
2022-11-16T03:53:42.217Z,6.03
2022-11-16T03:54:42.207Z,6.03
2022-11-16T03:55:46.999Z,6.03
2022-11-16T03:56:42.212Z,6.03
2022-11-16T03:57:42.168Z,6.01
2022-11-16T03:58:42.174Z,6.03
2022-11-16T03:59:42.146Z,6.01
2022-11-16T04:00:42.206Z,5.99
2022-11-16T04:01:44.896Z,5.99
2022-11-16T04:02:42.135Z,5.99
2022-11-16T04:03:42.109Z,6.01
2022-11-16T04:04:42.177Z,5.99
2022-11-16T04:05:42.093Z,5.96
2022-11-16T04:06:42.100Z,5.97
2022-11-16T04:07:42.074Z,5.96
2022-11-16T04:08:42.057Z,5.93
2022-11-16T04:09:42.054Z,5.91
2022-11-16T04:10:42.038Z,5.90
2022-11-16T04:11:42.062Z,5.90
2022-11-16T04:12:42.012Z,5.90
2022-11-16T04:13:42.010Z,5.90
2022-11-16T04:14:42.027Z,5.89
2022-11-16T04:15:42.000Z,5.85
2022-11-16T04:16:42.004Z,5.85
2022-11-16T04:17:41.964Z,5.85
2022-11-16T04:18:41.949Z,5.85
2022-11-16T04:19:41.951Z,5.85
2022-11-16T04:20:41.937Z,5.86
2022-11-16T04:21:41.915Z,5.89
2022-11-16T04:22:41.931Z,5.86
2022-11-16T04:23:41.913Z,5.85
2022-11-16T04:24:41.891Z,5.83
2022-11-16T04:25:41.878Z,5.83
2022-11-16T04:26:41.884Z,5.85
2022-11-16T04:27:41.901Z,5.83
2022-11-16T04:28:41.844Z,5.82
2022-11-16T04:29:41.835Z,5.82
2022-11-16T04:30:41.825Z,5.82
2022-11-16T04:31:41.818Z,5.82
2022-11-16T04:32:41.816Z,5.82
2022-11-16T04:33:41.823Z,5.82
2022-11-16T04:34:41.790Z,5.81
2022-11-16T04:35:41.780Z,5.81
2022-11-16T04:36:41.774Z,5.81
2022-11-16T04:37:41.762Z,5.82
2022-11-16T04:38:41.779Z,5.82
2022-11-16T04:39:41.734Z,5.79
2022-11-16T04:40:41.727Z,5.79
2022-11-16T04:41:41.791Z,5.79
2022-11-16T04:42:41.716Z,5.79
2022-11-16T04:43:41.699Z,5.78
2022-11-16T04:44:41.713Z,5.78
2022-11-16T04:45:41.680Z,5.78
2022-11-16T04:46:41.660Z,5.78
2022-11-16T04:47:41.652Z,5.75
2022-11-16T04:48:41.636Z,5.76
2022-11-16T04:49:41.672Z,5.76
2022-11-16T04:50:41.662Z,5.76
2022-11-16T04:51:41.607Z,5.75
2022-11-16T04:52:41.590Z,5.75
2022-11-16T04:53:41.596Z,5.74
2022-11-16T04:54:41.567Z,5.75
2022-11-16T04:55:41.586Z,5.74
2022-11-16T04:56:41.597Z,5.74
2022-11-16T04:57:41.542Z,5.74
2022-11-16T04:58:41.526Z,5.68
2022-11-16T04:59:41.534Z,5.72
2022-11-16T05:00:41.539Z,5.68
2022-11-16T05:01:41.587Z,5.71
2022-11-16T05:02:41.498Z,5.72
2022-11-16T05:03:41.482Z,5.72
2022-11-16T05:04:41.485Z,5.72
2022-11-16T05:05:41.491Z,5.72
2022-11-16T05:06:41.446Z,5.72
2022-11-16T05:07:41.453Z,5.72
2022-11-16T05:08:41.468Z,5.71
2022-11-16T05:09:41.422Z,5.71
2022-11-16T05:10:41.437Z,5.71
2022-11-16T05:11:41.427Z,5.71
2022-11-16T05:12:41.411Z,5.71
2022-11-16T05:13:41.410Z,5.71
2022-11-16T05:14:41.377Z,5.71
2022-11-16T05:15:41.413Z,5.71
2022-11-16T05:16:41.388Z,5.68
2022-11-16T05:17:41.349Z,5.67
2022-11-16T05:18:41.322Z,5.68
2022-11-16T05:19:41.312Z,5.71
2022-11-16T05:20:41.320Z,5.71
2022-11-16T05:21:41.303Z,5.68
2022-11-16T05:22:41.297Z,5.68
2022-11-16T05:23:41.273Z,5.68
2022-11-16T05:24:41.255Z,5.71
2022-11-16T05:25:41.248Z,5.68
2022-11-16T05:26:41.266Z,5.67
2022-11-16T05:27:41.239Z,5.68
2022-11-16T05:28:41.264Z,5.65
2022-11-16T05:29:41.211Z,5.65
2022-11-16T05:30:41.203Z,5.65
2022-11-16T05:31:41.191Z,5.64
2022-11-16T05:32:41.193Z,5.64
2022-11-16T05:33:41.164Z,5.63
2022-11-16T05:34:41.184Z,5.63
2022-11-16T05:35:41.149Z,5.63
2022-11-16T05:36:41.129Z,5.61
2022-11-16T05:37:41.124Z,5.61
2022-11-16T05:38:41.134Z,5.63
2022-11-16T05:39:41.136Z,5.60
2022-11-16T05:40:41.093Z,5.58
2022-11-16T05:41:41.111Z,5.60
2022-11-16T05:42:41.069Z,5.60
2022-11-16T05:43:41.098Z,5.60
2022-11-16T05:44:41.088Z,5.60
2022-11-16T05:45:41.063Z,5.58
2022-11-16T05:46:41.038Z,5.57
2022-11-16T05:47:41.021Z,5.60
2022-11-16T05:48:41.054Z,5.60
2022-11-16T05:49:41.012Z,5.60
2022-11-16T05:50:43.070Z,5.58
2022-11-16T05:51:41.009Z,5.58
2022-11-16T05:52:40.982Z,5.57
2022-11-16T05:53:40.958Z,5.58
2022-11-16T05:54:41.006Z,5.60
2022-11-16T05:55:40.938Z,5.61
2022-11-16T05:56:40.954Z,5.60
2022-11-16T05:57:40.935Z,5.60
2022-11-16T05:58:40.905Z,5.60
2022-11-16T05:59:41.013Z,5.60
2022-11-16T06:00:40.883Z,5.61
2022-11-16T06:01:40.883Z,5.63
2022-11-16T06:02:40.892Z,5.63
2022-11-16T06:03:40.875Z,5.63
2022-11-16T06:04:40.871Z,5.64
2022-11-16T06:05:40.964Z,5.64
2022-11-16T06:06:40.819Z,5.65
2022-11-16T06:07:40.817Z,5.67
2022-11-16T06:08:40.807Z,5.68
2022-11-16T06:09:40.770Z,5.65
2022-11-16T06:10:40.780Z,5.71
2022-11-16T06:11:40.738Z,5.71
2022-11-16T06:12:40.720Z,5.68
2022-11-16T06:13:40.740Z,5.68
2022-11-16T06:14:40.770Z,5.67
2022-11-16T06:15:40.765Z,5.68
2022-11-16T06:16:40.674Z,5.71
2022-11-16T06:17:40.673Z,5.71
2022-11-16T06:18:40.652Z,5.72
2022-11-16T06:19:40.640Z,5.74
2022-11-16T06:20:40.641Z,5.74
2022-11-16T06:21:40.615Z,5.75
2022-11-16T06:22:40.630Z,5.76
2022-11-16T06:23:40.597Z,5.75
2022-11-16T06:24:40.597Z,5.76
2022-11-16T06:25:40.606Z,5.78
2022-11-16T06:26:40.605Z,5.76
2022-11-16T06:27:40.551Z,5.79
2022-11-16T06:28:40.535Z,5.79
2022-11-16T06:29:40.532Z,5.78
2022-11-16T06:30:40.546Z,5.79
2022-11-16T06:31:40.509Z,5.79
2022-11-16T06:32:40.530Z,5.79
2022-11-16T06:33:40.525Z,5.81
2022-11-16T06:34:40.477Z,5.81
2022-11-16T06:35:40.470Z,5.82
2022-11-16T06:36:40.472Z,5.83
2022-11-16T06:37:40.459Z,5.82
2022-11-16T06:38:40.441Z,5.83
2022-11-16T06:39:40.457Z,5.82
2022-11-16T06:40:40.437Z,5.85
2022-11-16T06:41:41.704Z,5.85
2022-11-16T06:42:40.389Z,5.85
2022-11-16T06:43:40.404Z,5.85
2022-11-16T06:44:40.408Z,5.85
2022-11-16T06:45:40.365Z,5.86
2022-11-16T06:46:40.350Z,5.86
2022-11-16T06:47:40.345Z,5.90
2022-11-16T06:48:40.360Z,5.91
2022-11-16T06:49:40.325Z,5.93
2022-11-16T06:50:40.318Z,5.94
2022-11-16T06:51:40.315Z,5.96
2022-11-16T06:52:40.289Z,5.97
2022-11-16T06:53:40.294Z,5.97
2022-11-16T06:54:40.314Z,5.99
2022-11-16T06:55:40.263Z,6.00
2022-11-16T06:56:40.245Z,6.00
2022-11-16T06:57:40.277Z,6.01
2022-11-16T06:58:46.738Z,6.03
2022-11-16T06:59:40.212Z,6.01
2022-11-16T07:00:40.223Z,6.03
2022-11-16T07:01:40.258Z,6.01
2022-11-16T07:02:40.201Z,6.04
2022-11-16T07:03:40.171Z,6.04
2022-11-16T07:04:40.162Z,6.06
2022-11-16T07:05:40.173Z,6.08
2022-11-16T07:06:40.154Z,6.08
2022-11-16T07:07:40.175Z,6.11
2022-11-16T07:08:40.118Z,6.11
2022-11-16T07:09:40.110Z,6.12
2022-11-16T07:10:40.096Z,6.14
2022-11-16T07:11:40.126Z,6.12
2022-11-16T07:12:40.076Z,6.14
2022-11-16T07:13:40.078Z,6.14
2022-11-16T07:14:40.055Z,6.14
2022-11-16T07:15:40.061Z,6.17
2022-11-16T07:16:40.129Z,6.17
2022-11-16T07:17:40.053Z,6.18
2022-11-16T07:18:40.013Z,6.19
2022-11-16T07:19:40.004Z,6.21
2022-11-16T07:20:40.005Z,6.21
2022-11-16T07:21:39.989Z,6.22
2022-11-16T07:22:39.968Z,6.25
2022-11-16T07:23:40.011Z,6.25
2022-11-16T07:24:40.014Z,6.27
2022-11-16T07:25:39.963Z,6.28
2022-11-16T07:26:39.985Z,6.30
2022-11-16T07:27:39.919Z,6.30
2022-11-16T07:28:44.910Z,6.33
2022-11-16T07:29:39.907Z,6.34
2022-11-16T07:30:39.886Z,6.37
2022-11-16T07:31:39.903Z,6.40
2022-11-16T07:32:39.909Z,6.41
2022-11-16T07:33:39.880Z,6.44
2022-11-16T07:34:39.870Z,6.44
2022-11-16T07:35:39.871Z,6.46
2022-11-16T07:36:39.830Z,6.46
2022-11-16T07:37:39.819Z,6.46
2022-11-16T07:38:39.831Z,6.46
2022-11-16T07:39:39.818Z,6.46
2022-11-16T07:40:39.780Z,6.44
2022-11-16T07:41:39.773Z,6.44
2022-11-16T07:42:39.764Z,6.40
2022-11-16T07:43:39.758Z,6.40
2022-11-16T07:44:39.772Z,6.40
2022-11-16T07:45:39.737Z,6.38
2022-11-16T07:46:48.193Z,6.37
2022-11-16T07:47:39.719Z,6.37
2022-11-16T07:48:39.697Z,6.38
2022-11-16T07:49:39.715Z,6.38
2022-11-16T07:50:39.707Z,6.41
2022-11-16T07:51:39.674Z,6.41
2022-11-16T07:52:39.654Z,6.41
2022-11-16T07:53:39.649Z,6.43
2022-11-16T07:54:39.651Z,6.41
2022-11-16T07:55:39.633Z,6.43
2022-11-16T07:56:39.617Z,6.43
2022-11-16T07:57:39.647Z,6.46
2022-11-16T07:58:39.599Z,6.46
2022-11-16T07:59:39.609Z,6.48
2022-11-16T08:00:39.577Z,6.49
2022-11-16T08:01:39.655Z,6.51
2022-11-16T08:02:39.552Z,6.52
2022-11-16T08:03:39.546Z,6.52
2022-11-16T08:04:39.531Z,6.56
2022-11-16T08:05:39.547Z,6.58
2022-11-16T08:06:39.532Z,6.58
2022-11-16T08:07:39.607Z,6.61
2022-11-16T08:08:39.531Z,6.61
2022-11-16T08:09:39.617Z,6.62
2022-11-16T08:10:39.467Z,6.61
2022-11-16T08:11:39.463Z,6.64
2022-11-16T08:12:39.449Z,6.66
2022-11-16T08:13:39.461Z,6.67
2022-11-16T08:14:39.447Z,6.69
2022-11-16T08:15:39.420Z,6.69
2022-11-16T08:16:39.434Z,6.70
2022-11-16T08:17:39.401Z,6.70
2022-11-16T08:18:39.391Z,6.71
2022-11-16T08:19:39.385Z,6.74
2022-11-16T08:20:39.367Z,6.77
2022-11-16T08:21:39.388Z,6.79
2022-11-16T08:22:39.349Z,6.80
2022-11-16T08:23:39.338Z,6.80
2022-11-16T08:24:39.325Z,6.81
2022-11-16T08:25:39.318Z,6.84
2022-11-16T08:26:39.304Z,6.85
2022-11-16T08:27:39.326Z,6.84
2022-11-16T08:28:39.290Z,6.85
2022-11-16T08:29:39.277Z,6.88
2022-11-16T08:30:39.264Z,6.91
2022-11-16T08:31:39.257Z,6.92
2022-11-16T08:32:39.239Z,6.92
2022-11-16T08:33:39.265Z,6.92
2022-11-16T08:34:39.269Z,6.94
2022-11-16T08:35:39.215Z,6.97
2022-11-16T08:36:39.198Z,6.98
2022-11-16T08:37:39.202Z,7.02
2022-11-16T08:38:39.178Z,7.02
2022-11-16T08:39:39.170Z,7.03
2022-11-16T08:40:39.180Z,7.02
2022-11-16T08:41:39.153Z,7.03
2022-11-16T08:42:43.515Z,7.06
2022-11-16T08:43:39.130Z,7.06
2022-11-16T08:44:39.118Z,7.06
2022-11-16T08:45:39.107Z,7.07
2022-11-16T08:46:39.125Z,7.06
2022-11-16T08:47:39.094Z,7.06
2022-11-16T08:48:39.082Z,7.09
2022-11-16T08:49:39.062Z,7.10
2022-11-16T08:51:09.858Z,7.12
2022-11-16T08:51:39.048Z,7.13
2022-11-16T08:52:39.066Z,7.15
2022-11-16T08:53:39.025Z,7.15
2022-11-16T08:54:39.016Z,7.16
2022-11-16T08:55:39.003Z,7.16
2022-11-16T08:56:38.998Z,7.16
2022-11-16T08:57:38.984Z,7.17
2022-11-16T08:58:39.003Z,7.20
2022-11-16T08:59:38.971Z,7.21
2022-11-16T09:00:38.950Z,7.23
2022-11-16T09:01:39.019Z,7.25
2022-11-16T09:02:38.975Z,7.25
2022-11-16T09:03:38.930Z,7.27
2022-11-16T09:04:38.914Z,7.27
2022-11-16T09:05:38.899Z,7.25
2022-11-16T09:06:38.888Z,7.27
2022-11-16T09:07:38.919Z,7.28
2022-11-16T09:08:38.894Z,7.30
2022-11-16T09:09:38.890Z,7.28
2022-11-16T09:10:38.845Z,7.27
2022-11-16T09:11:38.845Z,7.27
2022-11-16T09:12:38.825Z,7.30
2022-11-16T09:13:38.823Z,7.30
2022-11-16T09:14:38.829Z,7.28
2022-11-16T09:15:38.792Z,7.30
2022-11-16T09:16:38.854Z,7.28
2022-11-16T09:17:38.788Z,7.28
2022-11-16T09:18:38.761Z,7.30
2022-11-16T09:19:38.780Z,7.28
2022-11-16T09:20:38.749Z,7.30
2022-11-16T09:21:38.731Z,7.30
2022-11-16T09:22:38.722Z,7.30
2022-11-16T09:23:38.718Z,7.31
2022-11-16T09:24:38.700Z,7.32
2022-11-16T09:25:38.714Z,7.32
2022-11-16T09:26:38.713Z,7.32
2022-11-16T09:27:38.670Z,7.34
2022-11-16T09:28:38.664Z,7.35
2022-11-16T09:29:38.654Z,7.35
2022-11-16T09:30:38.644Z,7.37
2022-11-16T09:31:38.629Z,7.39
2022-11-16T09:32:38.644Z,7.42
2022-11-16T09:33:38.604Z,7.43
2022-11-16T09:34:38.603Z,7.43
2022-11-16T09:35:38.588Z,7.45
2022-11-16T09:36:38.578Z,7.46
2022-11-16T09:37:38.588Z,7.46
2022-11-16T09:38:55.785Z,7.49
2022-11-16T09:39:38.550Z,7.52
2022-11-16T09:40:38.536Z,7.58
2022-11-16T09:41:38.523Z,7.61
2022-11-16T09:42:38.546Z,7.64
2022-11-16T09:43:44.022Z,7.67
2022-11-16T09:44:38.511Z,7.68
2022-11-16T09:45:38.483Z,7.67
2022-11-16T09:46:38.475Z,7.68
2022-11-16T09:47:38.464Z,7.68
2022-11-16T09:48:38.492Z,7.67
2022-11-16T09:49:38.456Z,7.64
2022-11-16T09:50:38.433Z,7.64
2022-11-16T09:51:38.421Z,7.63
2022-11-16T09:52:38.414Z,7.61
2022-11-16T09:53:38.802Z,7.61
2022-11-16T09:54:38.412Z,7.64
2022-11-16T09:55:38.379Z,7.68
2022-11-16T09:56:38.374Z,7.64
2022-11-16T09:57:38.364Z,7.69
2022-11-16T09:58:38.619Z,7.69
2022-11-16T09:59:38.336Z,7.68
2022-11-16T10:00:38.385Z,7.69
2022-11-16T10:01:38.313Z,7.67
2022-11-16T10:02:38.307Z,7.67
2022-11-16T10:03:38.290Z,7.67
2022-11-16T10:04:38.310Z,7.67
2022-11-16T10:05:38.271Z,7.67
2022-11-16T10:06:38.289Z,7.64
2022-11-16T10:07:38.286Z,7.63
2022-11-16T10:08:38.247Z,7.63
2022-11-16T10:09:38.261Z,7.61
2022-11-16T10:10:38.225Z,7.61
2022-11-16T10:11:38.210Z,7.63
2022-11-16T10:12:38.212Z,7.63
2022-11-16T10:13:38.210Z,7.64
2022-11-16T10:14:38.184Z,7.64
2022-11-16T10:15:38.189Z,7.67
2022-11-16T10:16:38.186Z,7.67
2022-11-16T10:17:38.151Z,7.80
2022-11-16T10:18:38.143Z,7.90
2022-11-16T10:19:38.155Z,7.97
2022-11-16T10:20:38.120Z,8.01
2022-11-16T10:21:38.108Z,8.01
2022-11-16T10:22:38.123Z,8.02
2022-11-16T10:23:38.086Z,8.01
2022-11-16T10:24:38.116Z,7.95
2022-11-16T10:25:38.066Z,7.93
2022-11-16T10:26:38.057Z,7.89
2022-11-16T10:27:38.071Z,7.86
2022-11-16T10:28:38.059Z,7.83
2022-11-16T10:29:38.024Z,7.83
2022-11-16T10:30:38.015Z,7.80
2022-11-16T10:31:38.003Z,7.83
2022-11-16T10:32:38.003Z,7.85
2022-11-16T10:33:38.099Z,7.86
2022-11-16T10:34:37.990Z,7.90
2022-11-16T10:35:37.964Z,7.93
2022-11-16T10:36:37.957Z,7.98
2022-11-16T10:37:37.966Z,8.08
2022-11-16T10:38:37.939Z,8.18
2022-11-16T10:39:37.925Z,8.19
2022-11-16T10:40:37.938Z,8.22
2022-11-16T10:41:37.898Z,8.23
2022-11-16T10:42:37.890Z,8.26
2022-11-16T10:43:37.875Z,8.25
2022-11-16T10:44:37.898Z,8.29
2022-11-16T10:45:37.853Z,8.33
2022-11-16T10:46:37.865Z,8.38
2022-11-16T10:47:37.834Z,8.40
2022-11-16T10:48:37.827Z,8.44
2022-11-16T10:49:37.813Z,8.52
2022-11-16T10:50:37.808Z,8.56
2022-11-16T10:51:37.811Z,8.59
2022-11-16T10:52:37.784Z,8.61
2022-11-16T10:53:37.975Z,8.61
2022-11-16T10:54:42.887Z,8.63
2022-11-16T10:55:37.776Z,8.66
2022-11-16T10:56:37.763Z,8.66
2022-11-16T10:57:37.734Z,8.68
2022-11-16T10:58:37.720Z,8.68
2022-11-16T10:59:37.734Z,8.79
2022-11-16T11:00:37.804Z,8.94
2022-11-16T11:01:37.690Z,9.04
2022-11-16T11:02:37.675Z,9.17
2022-11-16T11:03:37.841Z,9.42
2022-11-16T11:04:37.655Z,9.66
2022-11-16T11:05:37.648Z,9.84
2022-11-16T11:06:37.668Z,10.04
2022-11-16T11:07:37.696Z,10.17
2022-11-16T11:08:37.612Z,10.23
2022-11-16T11:09:37.598Z,10.04
2022-11-16T11:10:37.595Z,9.97
2022-11-16T11:11:37.592Z,9.94
2022-11-16T11:12:37.590Z,9.91
2022-11-16T11:13:37.557Z,9.94
2022-11-16T11:14:37.548Z,9.96
2022-11-16T11:15:37.534Z,9.96
2022-11-16T11:16:37.530Z,9.97
2022-11-16T11:17:37.532Z,9.94
2022-11-16T11:18:37.507Z,9.94
2022-11-16T11:19:37.491Z,9.93
2022-11-16T11:20:41.718Z,9.91
2022-11-16T11:21:37.478Z,9.89
2022-11-16T11:22:37.484Z,9.91
2022-11-16T11:23:37.453Z,9.91
2022-11-16T11:24:44.584Z,9.90
2022-11-16T11:25:37.433Z,9.83
2022-11-16T11:26:37.589Z,9.76
2022-11-16T11:27:37.429Z,9.76
2022-11-16T11:28:37.414Z,9.76
2022-11-16T11:29:37.413Z,9.74
2022-11-16T11:30:37.395Z,9.72
2022-11-16T11:31:37.372Z,9.69
2022-11-16T11:32:37.370Z,9.71
2022-11-16T11:33:37.751Z,9.68
2022-11-16T11:34:37.342Z,9.72
2022-11-16T11:35:37.323Z,9.74
2022-11-16T11:36:37.338Z,9.76
2022-11-16T11:37:37.304Z,9.78
2022-11-16T11:38:37.315Z,9.83
2022-11-16T11:39:37.324Z,9.86
2022-11-16T11:40:37.303Z,9.90
2022-11-16T11:41:37.274Z,9.91
2022-11-16T11:42:37.252Z,9.96
2022-11-16T11:43:37.477Z,9.99
2022-11-16T11:44:37.230Z,10.02
2022-11-16T11:45:37.218Z,10.02
2022-11-16T11:47:11.012Z,10.05
2022-11-16T11:48:36.189Z,10.07
2022-11-16T11:49:37.177Z,10.04
2022-11-16T11:50:37.172Z,10.04
2022-11-16T11:51:37.181Z,10.07
2022-11-16T11:52:37.145Z,10.12
2022-11-16T11:53:37.495Z,10.18
2022-11-16T11:54:41.690Z,10.26
2022-11-16T11:55:37.117Z,10.33
2022-11-16T11:56:37.124Z,10.33
2022-11-16T11:57:37.091Z,10.33
2022-11-16T11:58:37.123Z,10.32
2022-11-16T11:59:37.068Z,10.29
2022-11-16T12:00:37.060Z,10.25
2022-11-16T12:01:37.053Z,10.20
2022-11-16T12:02:37.063Z,10.17
2022-11-16T12:03:37.253Z,10.14
2022-11-16T12:04:37.020Z,10.12
2022-11-16T12:05:37.023Z,10.18
2022-11-16T12:06:42.627Z,10.22
2022-11-16T12:07:37.081Z,10.23
2022-11-16T12:08:36.977Z,10.25
2022-11-16T12:09:36.986Z,10.25
2022-11-16T12:10:36.989Z,10.23
2022-11-16T12:11:36.940Z,10.26
2022-11-16T12:12:36.935Z,10.27
2022-11-16T12:13:37.318Z,10.29
2022-11-16T12:14:36.918Z,10.33
2022-11-16T12:15:36.898Z,10.61
2022-11-16T12:16:36.918Z,10.81
2022-11-16T12:17:36.879Z,11.11
2022-11-16T12:18:36.869Z,11.21
2022-11-16T12:19:36.878Z,11.21
2022-11-16T12:20:36.847Z,11.22
2022-11-16T12:21:36.833Z,11.22
2022-11-16T12:22:36.827Z,11.15
2022-11-16T12:23:37.109Z,11.17
2022-11-16T12:24:36.852Z,11.17
2022-11-16T12:25:36.828Z,11.22
2022-11-16T12:26:36.786Z,11.36
2022-11-16T12:27:36.783Z,11.46
2022-11-16T12:28:36.806Z,11.57
2022-11-16T12:29:36.752Z,11.65
2022-11-16T12:30:36.742Z,11.70
2022-11-16T12:31:36.756Z,11.90
2022-11-16T12:32:36.729Z,12.16
2022-11-16T12:33:37.001Z,12.37
2022-11-16T12:34:36.711Z,12.53
2022-11-16T12:35:36.707Z,12.54
2022-11-16T12:36:36.682Z,12.34
2022-11-16T12:37:36.695Z,12.21
2022-11-16T12:38:36.678Z,12.12
2022-11-16T12:39:36.675Z,12.07
2022-11-16T12:40:36.635Z,12.16
2022-11-16T12:41:36.624Z,12.07
2022-11-16T12:42:36.612Z,12.09
2022-11-16T12:43:36.885Z,12.21
2022-11-16T12:44:36.593Z,12.34
2022-11-16T12:45:36.587Z,12.41
2022-11-16T12:46:36.581Z,12.29
2022-11-16T12:47:36.561Z,12.38
2022-11-16T12:48:36.573Z,12.53
2022-11-16T12:49:36.535Z,12.62
2022-11-16T12:50:37.120Z,12.71
2022-11-16T12:51:36.519Z,12.71
2022-11-16T12:52:36.523Z,12.77
2022-11-16T12:53:36.893Z,12.85
2022-11-16T12:54:36.511Z,12.83
2022-11-16T12:55:36.494Z,12.75
2022-11-16T12:56:36.488Z,12.65
2022-11-16T12:57:36.457Z,12.60
2022-11-16T12:58:36.445Z,12.64
2022-11-16T12:59:36.434Z,12.70
2022-11-16T13:00:36.417Z,12.56
2022-11-16T13:01:36.509Z,12.39
2022-11-16T13:02:36.436Z,12.31
2022-11-16T13:03:36.860Z,12.19
2022-11-16T13:04:36.377Z,12.13
2022-11-16T13:05:36.365Z,12.07
2022-11-16T13:06:36.370Z,11.98
2022-11-16T13:07:36.371Z,11.90
2022-11-16T13:08:36.354Z,11.82
2022-11-16T13:09:36.380Z,11.70
2022-11-16T13:10:36.311Z,11.58
2022-11-16T13:11:36.303Z,11.49
2022-11-16T13:12:36.291Z,11.46
2022-11-16T13:13:49.727Z,11.42
2022-11-16T13:14:36.275Z,11.40
2022-11-16T13:15:36.297Z,11.39
2022-11-16T13:16:36.246Z,11.33